Aérodrome :
LOGIN :

S'inscrire | Disclaimer

   EN    FR    IT 

 










Légende :    VFR   VFR Marginal   IFR   IFR Intensif   IFR Très Intensif
Visi : 
Plafond : 
>= 8 km
>= 3000ft
5 à 8 km
1000 à 3000 ft
1500m à 5 km
500 à 1000 ft
800 à 1500m
200 à 500 ft
< 800m
< 200 ft
Symboles :   Orages  Brouillard  Fortes neiges  Fortes précipitations  Vent > 20 kt
SIGMETs :   Divers  Orages  Givrage  Turbulence  Onde Orograph.  Cendres Volcan.






- Altitude de l'aérodrome : 329 ft
- Code IATA : MIK


EFMI - Mikkeli

DERNIER METAR :
  • 260350Z AUTO 23006KT 180V270 9999 -SHRA OVC007 06/05 Q1001

METARs EXPIRÉS :
  • 260320Z AUTO 23006KT 180V270 6000 SHRA OVC005 06/05 Q1001
  • 260250Z AUTO 22007KT 180V260 9999 OVC006 06/05 Q1002
  • 260220Z AUTO 21006KT 160V250 9000 -RA OVC005 06/05 Q1002
  • 260150Z AUTO 19004KT 140V240 6000 OVC003 05/05 Q1002
  • 260120Z AUTO 18004KT 140V230 6000 OVC002 04/04 Q1002

Prévision TAF périmée.



MET'MAP, la Météo Aéronautique d'un coup d'oeil ! - Copyright ORBIFLY Décembre 2007 - Disclaimer

ORBIFLY MET'MAP TEAM :

Programmation & Développement : Alexandra Zaïnal
Sur une idée originale de : Baudouin d'Aumeries
Assistance à la programmation : Marc-Olivier Méhu
Soutien technique & logistique : Manuel Goepfert

Contact : metmap@orbifly.com




SOURCES & CREDITS :

   NOAA